Florence, South Carolina
Current Conditions -  °F | °C
As of 4:53 AM on Monday 22 Dec 2014 (Local Time) from KFLO Reporting Station
Overcast Overcast  
Wind Chill:   Ceiling: 600
Heat Index:   Visibility: 8mi
Dew Point:   Wind: 10mph
Humidity: 93%   Direction: 40°NE
Pressure: 30.07"   Gusts: NA
Location:  34.19°N, 79.77°W
Report Text: KFLO 220953Z AUTO 04009KT 8SM BKN006 OVC010 06/05 A3007 RMK AO2 RAE34 CIG 004V008 SLP181 P0001 T00610050
Loading
Personal Weather Stations






























Interactive Weather Map New forecast layout! Learn more

10-Day Weather Forecast

Advertisements
Track Severe Weather on mobile